createdAt,value
2022-08-25T00:02:12.221Z,13.75
2022-08-25T00:04:38.823Z,13.69
2022-08-25T00:07:07.142Z,13.88
2022-08-25T00:09:34.990Z,13.83
2022-08-25T00:12:03.290Z,13.47
2022-08-25T00:14:34.070Z,13.80
2022-08-25T00:17:01.035Z,13.52
2022-08-25T00:19:32.159Z,13.72
2022-08-25T00:22:00.183Z,13.54
2022-08-25T00:24:26.789Z,13.52
2022-08-25T00:26:56.703Z,13.46
2022-08-25T00:29:27.950Z,13.43
2022-08-25T00:31:55.715Z,13.26
2022-08-25T00:34:26.526Z,13.07
2022-08-25T00:36:53.361Z,13.09
2022-08-25T00:39:21.728Z,13.07
2022-08-25T00:41:50.298Z,13.06
2022-08-25T00:44:18.821Z,12.71
2022-08-25T00:46:57.641Z,12.89
2022-08-25T00:49:37.329Z,12.79
2022-08-25T00:52:27.685Z,12.76
2022-08-25T00:55:09.026Z,12.71
2022-08-25T00:58:18.598Z,12.63
2022-08-25T01:00:49.536Z,12.51
2022-08-25T01:03:19.134Z,12.28
2022-08-25T01:05:46.751Z,12.17
2022-08-25T01:08:16.257Z,12.35
2022-08-25T01:10:44.570Z,12.33
2022-08-25T01:13:23.673Z,12.26
2022-08-25T01:15:54.491Z,12.39
2022-08-25T01:18:21.758Z,12.42
2022-08-25T01:20:50.600Z,12.40
2022-08-25T01:23:17.006Z,12.19
2022-08-25T01:25:51.548Z,12.26
2022-08-25T01:28:20.466Z,12.40
2022-08-25T01:30:47.729Z,12.52
2022-08-25T01:33:15.005Z,12.47
2022-08-25T01:35:41.477Z,12.28
2022-08-25T01:38:08.381Z,12.41
2022-08-25T01:40:37.381Z,12.60
2022-08-25T01:43:12.983Z,13.04
2022-08-25T01:45:42.874Z,12.80
2022-08-25T01:48:10.350Z,12.92
2022-08-25T01:50:38.115Z,12.69
2022-08-25T01:53:17.390Z,12.60
2022-08-25T01:55:55.217Z,12.64
2022-08-25T01:58:22.726Z,12.71
2022-08-25T02:00:51.173Z,12.71
2022-08-25T02:03:19.083Z,12.59
2022-08-25T02:05:48.002Z,12.79
2022-08-25T02:08:14.979Z,12.78
2022-08-25T02:10:41.563Z,12.48
2022-08-25T02:13:08.894Z,12.43
2022-08-25T02:15:35.678Z,12.36
2022-08-25T02:18:02.448Z,12.17
2022-08-25T02:20:28.887Z,12.38
2022-08-25T02:22:56.539Z,12.38
2022-08-25T02:25:23.649Z,12.36
2022-08-25T02:27:50.097Z,12.22
2022-08-25T02:30:17.720Z,12.67
2022-08-25T02:32:44.507Z,12.44
2022-08-25T02:35:11.564Z,12.51
2022-08-25T02:37:38.049Z,12.27
2022-08-25T02:40:05.451Z,12.49
2022-08-25T02:42:31.977Z,12.58
2022-08-25T02:44:58.386Z,12.45
2022-08-25T02:47:27.058Z,12.28
2022-08-25T02:49:53.871Z,12.11
2022-08-25T02:52:20.310Z,12.09
2022-08-25T02:54:46.787Z,12.16
2022-08-25T02:57:14.130Z,12.12
2022-08-25T02:59:41.368Z,12.01
2022-08-25T03:02:07.877Z,11.92
2022-08-25T03:04:34.599Z,11.73
2022-08-25T03:07:01.032Z,11.55
2022-08-25T03:09:27.479Z,11.59
2022-08-25T03:11:54.573Z,11.65
2022-08-25T03:14:20.989Z,11.64
2022-08-25T03:16:47.466Z,11.60
2022-08-25T03:19:13.891Z,11.60
2022-08-25T03:21:40.377Z,11.55
2022-08-25T03:24:07.330Z,11.47
2022-08-25T03:26:52.337Z,11.49
2022-08-25T03:29:18.809Z,11.19
2022-08-25T03:31:45.557Z,11.31
2022-08-25T03:34:13.939Z,11.48
2022-08-25T03:36:40.651Z,11.33
2022-08-25T03:39:08.405Z,11.35
2022-08-25T03:41:35.386Z,11.23
2022-08-25T03:44:04.097Z,11.18
2022-08-25T03:46:38.093Z,11.22
2022-08-25T03:49:06.927Z,11.13
2022-08-25T03:51:40.400Z,11.02
2022-08-25T03:54:07.674Z,10.99
2022-08-25T03:56:34.131Z,10.79
2022-08-25T03:59:00.624Z,10.90
2022-08-25T04:01:28.363Z,10.91
2022-08-25T04:03:55.243Z,10.73
2022-08-25T04:06:22.086Z,10.85
2022-08-25T04:08:48.815Z,10.62
2022-08-25T04:11:21.183Z,10.99
2022-08-25T04:13:48.474Z,11.15
2022-08-25T04:16:23.768Z,11.22
2022-08-25T04:18:52.097Z,10.89
2022-08-25T04:21:20.306Z,10.50
2022-08-25T04:23:48.889Z,10.97
2022-08-25T04:26:43.094Z,10.96
2022-08-25T04:29:10.734Z,11.09
2022-08-25T04:31:40.304Z,10.84
2022-08-25T04:34:23.145Z,10.85
2022-08-25T04:36:53.529Z,10.80
2022-08-25T04:39:21.263Z,10.77
2022-08-25T04:41:48.487Z,10.57
2022-08-25T04:44:15.281Z,10.58
2022-08-25T04:46:41.704Z,10.88
2022-08-25T04:49:08.773Z,10.70
2022-08-25T04:51:39.607Z,10.83
2022-08-25T04:54:10.478Z,10.78
2022-08-25T04:56:39.062Z,10.57
2022-08-25T04:59:10.463Z,10.78
2022-08-25T05:01:37.695Z,10.83
2022-08-25T05:04:06.772Z,11.06
2022-08-25T05:06:33.275Z,11.01
2022-08-25T05:09:01.128Z,11.12
2022-08-25T05:11:28.569Z,11.11
2022-08-25T05:13:56.586Z,11.35
2022-08-25T05:16:24.779Z,11.14
2022-08-25T05:18:52.413Z,11.32
2022-08-25T05:21:22.257Z,11.50
2022-08-25T05:23:49.780Z,11.35
2022-08-25T05:26:24.637Z,11.50
2022-08-25T05:28:54.072Z,11.59
2022-08-25T05:31:23.242Z,11.78
2022-08-25T05:33:51.103Z,11.82
2022-08-25T05:36:19.730Z,11.57
2022-08-25T05:38:46.585Z,11.96
2022-08-25T05:41:19.601Z,11.93
2022-08-25T05:43:48.743Z,12.22
2022-08-25T05:46:16.879Z,12.25
2022-08-25T05:48:43.549Z,12.30
2022-08-25T05:51:12.088Z,12.30
2022-08-25T05:53:41.603Z,12.48
2022-08-25T05:56:09.562Z,12.52
2022-08-25T05:58:37.600Z,12.61
2022-08-25T06:01:23.545Z,12.74
2022-08-25T06:03:54.328Z,12.77
2022-08-25T06:06:23.116Z,12.75
2022-08-25T06:08:49.640Z,12.78
2022-08-25T06:11:16.495Z,12.97
2022-08-25T06:13:43.296Z,13.15
2022-08-25T06:16:09.878Z,13.15
2022-08-25T06:18:36.309Z,13.18
2022-08-25T06:21:14.148Z,13.35
2022-08-25T06:23:41.237Z,13.44
2022-08-25T06:26:13.147Z,13.50
2022-08-25T06:28:48.161Z,13.61
2022-08-25T06:31:15.013Z,13.56
2022-08-25T06:33:41.530Z,13.72
2022-08-25T06:36:08.636Z,13.93
2022-08-25T06:38:35.190Z,13.93
2022-08-25T06:41:03.745Z,14.09
2022-08-25T06:43:30.164Z,14.21
2022-08-25T06:45:56.584Z,14.51
2022-08-25T06:48:23.948Z,14.41
2022-08-25T06:50:50.426Z,14.39
2022-08-25T06:53:16.869Z,14.21
2022-08-25T06:55:43.268Z,14.56
2022-08-25T06:58:11.113Z,14.92
2022-08-25T07:00:37.860Z,14.85
2022-08-25T07:03:04.982Z,15.40
2022-08-25T07:05:42.888Z,15.23
2022-08-25T07:08:11.910Z,15.30
2022-08-25T07:10:38.679Z,15.58
2022-08-25T07:13:05.073Z,15.48
2022-08-25T07:15:31.475Z,15.65
2022-08-25T07:17:58.078Z,15.82
2022-08-25T07:22:56.057Z,16.01
2022-08-25T07:25:23.918Z,16.11
2022-08-25T07:27:50.401Z,16.23
2022-08-25T07:30:18.162Z,16.19
2022-08-25T07:32:44.685Z,16.34
2022-08-25T07:35:19.524Z,16.59
2022-08-25T07:37:56.735Z,16.78
2022-08-25T07:40:27.873Z,16.67
2022-08-25T07:42:57.038Z,16.91
2022-08-25T07:45:30.467Z,16.80
2022-08-25T07:47:59.921Z,17.04
2022-08-25T07:50:27.537Z,17.09
2022-08-25T07:52:55.452Z,17.12
2022-08-25T07:55:24.286Z,17.30
2022-08-25T07:57:55.430Z,17.14
2022-08-25T08:00:24.381Z,17.41
2022-08-25T08:02:51.187Z,17.59
2022-08-25T08:05:17.638Z,17.59
2022-08-25T08:07:44.444Z,17.72
2022-08-25T08:13:00.647Z,18.10
2022-08-25T08:15:29.913Z,18.18
2022-08-25T08:17:57.995Z,18.47
2022-08-25T08:20:25.022Z,18.58
2022-08-25T08:22:51.541Z,18.56
2022-08-25T08:25:21.235Z,18.63
2022-08-25T08:27:48.784Z,18.79
2022-08-25T08:30:15.332Z,18.88
2022-08-25T08:33:06.246Z,19.13
2022-08-25T08:35:28.580Z,19.09
2022-08-25T08:37:54.983Z,19.04
2022-08-25T08:40:21.635Z,19.00
2022-08-25T08:43:07.093Z,19.27
2022-08-25T08:45:53.601Z,19.09
2022-08-25T08:48:52.500Z,19.31
2022-08-25T08:51:33.123Z,19.50
2022-08-25T08:54:18.671Z,19.77
2022-08-25T08:56:48.986Z,19.62
2022-08-25T08:59:21.677Z,19.84
2022-08-25T09:02:38.577Z,19.82
2022-08-25T09:05:10.846Z,19.88
2022-08-25T09:07:55.042Z,19.86
2022-08-25T09:10:48.845Z,19.81
2022-08-25T09:13:37.569Z,19.83
2022-08-25T09:16:41.768Z,20.21
2022-08-25T09:19:21.219Z,20.21
2022-08-25T09:22:35.220Z,20.54
2022-08-25T09:25:48.690Z,20.66
2022-08-25T09:28:29.058Z,20.76
2022-08-25T09:31:01.826Z,20.76
2022-08-25T09:33:35.530Z,20.80
2022-08-25T09:36:06.008Z,20.87
2022-08-25T09:38:35.383Z,20.89
2022-08-25T09:41:02.990Z,21.12
2022-08-25T09:43:41.805Z,21.23
2022-08-25T09:46:08.197Z,21.27
2022-08-25T09:48:48.416Z,21.37
2022-08-25T09:51:42.186Z,21.60
2022-08-25T09:54:12.517Z,21.58
2022-08-25T09:56:53.234Z,21.89
2022-08-25T09:59:35.691Z,22.02
2022-08-25T10:02:04.392Z,22.29
2022-08-25T10:04:40.094Z,22.63
2022-08-25T10:07:22.763Z,22.51
2022-08-25T10:09:55.869Z,22.90
2022-08-25T10:12:44.606Z,23.11
2022-08-25T10:15:29.589Z,23.21
2022-08-25T10:18:17.583Z,23.75
2022-08-25T10:20:44.755Z,23.84
2022-08-25T10:23:14.465Z,23.68
2022-08-25T10:25:59.484Z,23.74
2022-08-25T10:28:42.922Z,24.05
2022-08-25T10:31:22.172Z,24.20
2022-08-25T10:34:05.618Z,24.33
2022-08-25T10:36:41.326Z,24.56
2022-08-25T10:39:36.339Z,24.58
2022-08-25T10:42:25.816Z,24.56
2022-08-25T10:45:31.382Z,24.61
2022-08-25T10:48:23.349Z,24.80
2022-08-25T10:51:21.491Z,24.85
2022-08-25T10:54:00.090Z,25.05
2022-08-25T10:56:40.211Z,25.00
2022-08-25T10:59:19.685Z,25.05
2022-08-25T11:02:04.513Z,25.13
2022-08-25T11:04:59.691Z,25.25
2022-08-25T11:07:35.525Z,24.95
2022-08-25T11:10:27.817Z,25.36
2022-08-25T11:13:06.794Z,24.65
2022-08-25T11:16:13.678Z,25.07
2022-08-25T11:18:44.316Z,25.12
2022-08-25T11:21:22.142Z,25.45
2022-08-25T11:24:15.036Z,25.49
2022-08-25T11:26:49.638Z,25.42
2022-08-25T11:29:18.593Z,25.67
2022-08-25T11:31:53.638Z,25.57
2022-08-25T11:34:22.446Z,25.62
2022-08-25T11:36:57.998Z,25.83
2022-08-25T11:39:58.902Z,25.97
2022-08-25T11:42:35.781Z,25.83
2022-08-25T11:45:17.668Z,25.91
2022-08-25T11:48:05.846Z,26.07
2022-08-25T11:50:35.525Z,26.13
2022-08-25T11:53:26.814Z,25.87
2022-08-25T11:56:02.410Z,26.25
2022-08-25T11:58:43.854Z,26.53
2022-08-25T12:01:13.709Z,26.48
2022-08-25T12:03:42.859Z,26.14
2022-08-25T12:06:30.896Z,26.15
2022-08-25T12:09:00.030Z,26.31
2022-08-25T12:11:42.250Z,26.44
2022-08-25T12:14:36.641Z,26.51
2022-08-25T12:17:17.373Z,26.02
2022-08-25T12:19:43.814Z,26.53
2022-08-25T12:22:10.162Z,26.50
2022-08-25T12:24:48.246Z,26.62
2022-08-25T12:27:39.371Z,26.71
2022-08-25T12:30:20.937Z,26.59
2022-08-25T12:33:13.634Z,26.64
2022-08-25T12:35:57.751Z,26.90
2022-08-25T12:38:32.790Z,26.58
2022-08-25T12:41:12.119Z,26.78
2022-08-25T12:43:45.352Z,27.12
2022-08-25T12:46:21.050Z,27.19
2022-08-25T12:49:16.981Z,27.07
2022-08-25T12:51:53.798Z,27.08
2022-08-25T12:54:43.970Z,27.15
2022-08-25T12:57:25.058Z,27.26
2022-08-25T12:59:58.654Z,26.96
2022-08-25T13:02:52.677Z,26.94
2022-08-25T13:05:50.226Z,27.08
2022-08-25T13:08:22.663Z,27.03
2022-08-25T13:11:01.979Z,27.16
2022-08-25T13:13:58.838Z,26.95
2022-08-25T13:16:29.735Z,27.10
2022-08-25T13:18:59.426Z,26.97
2022-08-25T13:21:41.580Z,27.03
2022-08-25T13:24:21.211Z,27.16
2022-08-25T13:26:53.957Z,27.20
2022-08-25T13:29:36.945Z,27.40
2022-08-25T13:32:12.836Z,27.57
2022-08-25T13:34:42.556Z,27.66
2022-08-25T13:37:29.596Z,27.53
2022-08-25T13:40:11.049Z,27.51
2022-08-25T13:42:42.533Z,27.31
2022-08-25T13:45:15.054Z,27.40
2022-08-25T13:47:45.403Z,27.33
2022-08-25T13:50:30.619Z,27.24
2022-08-25T13:53:04.034Z,27.09
2022-08-25T13:55:50.961Z,27.05
2022-08-25T13:58:24.701Z,26.90
2022-08-25T14:01:22.696Z,26.95
2022-08-25T14:04:17.096Z,27.30
2022-08-25T14:06:44.083Z,27.24
2022-08-25T14:09:17.775Z,27.43
2022-08-25T14:11:56.501Z,27.73
2022-08-25T14:14:22.878Z,27.70
2022-08-25T14:16:54.147Z,27.75
2022-08-25T14:19:24.346Z,27.72
2022-08-25T14:21:56.840Z,28.01
2022-08-25T14:24:23.853Z,28.29
2022-08-25T14:26:53.846Z,27.67
2022-08-25T14:29:22.034Z,27.89
2022-08-25T14:31:49.057Z,27.53
2022-08-25T14:34:20.319Z,27.60
2022-08-25T14:36:48.342Z,27.84
2022-08-25T14:39:14.989Z,28.01
2022-08-25T14:41:45.340Z,27.90
2022-08-25T14:44:19.679Z,28.01
2022-08-25T14:46:51.757Z,28.11
2022-08-25T14:49:26.954Z,28.09
2022-08-25T14:51:53.896Z,28.21
2022-08-25T14:54:26.576Z,27.86
2022-08-25T14:56:53.899Z,28.01
2022-08-25T14:59:20.547Z,27.59
2022-08-25T15:01:47.150Z,27.68
2022-08-25T15:04:22.671Z,27.70
2022-08-25T15:06:57.397Z,27.81
2022-08-25T15:09:25.039Z,27.96
2022-08-25T15:11:59.753Z,27.89
2022-08-25T15:14:28.640Z,27.77
2022-08-25T15:16:59.427Z,27.62
2022-08-25T15:19:27.041Z,27.82
2022-08-25T15:21:54.534Z,27.59
2022-08-25T15:24:25.826Z,27.43
2022-08-25T15:26:55.562Z,28.12
2022-08-25T15:29:23.315Z,28.12
2022-08-25T15:31:50.818Z,28.05
2022-08-25T15:34:17.562Z,27.69
2022-08-25T15:36:45.277Z,28.01
2022-08-25T15:39:11.708Z,28.31
2022-08-25T15:41:38.500Z,27.90
2022-08-25T15:44:07.712Z,27.98
2022-08-25T15:46:35.889Z,28.00
2022-08-25T15:49:02.422Z,27.63
2022-08-25T15:51:29.359Z,28.09
2022-08-25T15:53:57.266Z,27.97
2022-08-25T15:56:26.789Z,27.75
2022-08-25T15:58:55.060Z,28.00
2022-08-25T16:01:27.054Z,28.32
2022-08-25T16:03:54.014Z,28.14
2022-08-25T16:06:20.889Z,28.36
2022-08-25T16:08:48.215Z,28.33
2022-08-25T16:11:18.570Z,28.51
2022-08-25T16:13:46.448Z,28.40
2022-08-25T16:16:16.250Z,28.76
2022-08-25T16:18:43.774Z,28.58
2022-08-25T16:21:12.507Z,28.65
2022-08-25T16:23:39.655Z,28.19
2022-08-25T16:26:11.218Z,28.28
2022-08-25T16:28:43.776Z,28.57
2022-08-25T16:31:13.313Z,28.33
2022-08-25T16:36:21.435Z,28.06
2022-08-25T16:38:49.584Z,28.48
2022-08-25T16:41:23.944Z,28.21
2022-08-25T16:43:51.121Z,28.11
2022-08-25T16:46:20.582Z,28.21
2022-08-25T16:48:47.451Z,28.21
2022-08-25T16:51:16.995Z,28.26
2022-08-25T16:54:04.583Z,28.25
2022-08-25T16:56:35.093Z,28.02
2022-08-25T16:59:02.853Z,27.76
2022-08-25T17:01:33.677Z,28.05
2022-08-25T17:04:00.133Z,28.04
2022-08-25T17:06:29.210Z,27.91
2022-08-25T17:08:56.319Z,27.82
2022-08-25T17:11:29.103Z,27.45
2022-08-25T17:14:01.347Z,26.92
2022-08-25T17:16:32.336Z,26.92
2022-08-25T17:19:06.647Z,26.81
2022-08-25T17:21:36.894Z,26.29
2022-08-25T17:24:04.846Z,26.09
2022-08-25T17:26:31.502Z,25.77
2022-08-25T17:29:00.798Z,25.31
2022-08-25T17:31:29.908Z,25.16
2022-08-25T17:33:57.261Z,25.04
2022-08-25T17:36:26.933Z,24.43
2022-08-25T17:38:54.917Z,24.43
2022-08-25T17:41:23.759Z,24.23
2022-08-25T17:43:50.217Z,23.67
2022-08-25T17:46:17.618Z,23.27
2022-08-25T17:48:44.839Z,22.88
2022-08-25T17:51:11.997Z,22.69
2022-08-25T17:53:38.726Z,22.62
2022-08-25T17:56:08.862Z,22.34
2022-08-25T17:58:36.428Z,22.12
2022-08-25T18:01:04.637Z,21.94
2022-08-25T18:03:32.447Z,21.56
2022-08-25T18:05:59.197Z,21.48
2022-08-25T18:08:32.182Z,21.64
2022-08-25T18:11:01.851Z,21.31
2022-08-25T18:13:28.454Z,21.68
2022-08-25T18:15:55.009Z,21.84
2022-08-25T18:18:21.409Z,21.80
2022-08-25T18:20:50.957Z,21.78
2022-08-25T18:23:19.483Z,20.86
2022-08-25T18:25:48.594Z,20.84
2022-08-25T18:28:15.262Z,20.26
2022-08-25T18:30:42.399Z,20.27
2022-08-25T18:33:09.041Z,20.44
2022-08-25T18:35:36.123Z,20.33
2022-08-25T18:38:24.101Z,20.89
2022-08-25T18:40:59.095Z,20.57
2022-08-25T18:43:26.336Z,20.27
2022-08-25T18:45:52.787Z,19.84
2022-08-25T18:48:23.575Z,19.82
2022-08-25T18:50:53.809Z,19.62
2022-08-25T18:53:30.621Z,19.56
2022-08-25T18:56:09.608Z,19.34
2022-08-25T18:58:36.119Z,19.26
2022-08-25T19:01:03.975Z,19.06
2022-08-25T19:03:31.154Z,18.74
2022-08-25T19:05:58.001Z,18.30
2022-08-25T19:08:24.769Z,18.45
2022-08-25T19:10:52.803Z,18.25
2022-08-25T19:13:22.752Z,18.25
2022-08-25T19:15:51.354Z,17.93
2022-08-25T19:18:18.852Z,18.17
2022-08-25T19:20:52.500Z,18.03
2022-08-25T19:23:19.401Z,17.80
2022-08-25T19:25:45.843Z,17.70
2022-08-25T19:28:13.753Z,17.68
2022-08-25T19:30:50.183Z,17.68
2022-08-25T19:33:41.964Z,17.93
2022-08-25T19:36:08.456Z,17.45
2022-08-25T19:38:36.664Z,17.05
2022-08-25T19:41:13.966Z,17.17
2022-08-25T19:43:50.472Z,17.23
2022-08-25T19:46:23.367Z,17.24
2022-08-25T19:48:49.888Z,17.18
2022-08-25T19:51:19.410Z,17.21
2022-08-25T19:53:53.633Z,17.06
2022-08-25T19:56:21.546Z,17.02
2022-08-25T19:58:47.970Z,16.92
2022-08-25T20:01:18.151Z,16.73
2022-08-25T20:03:45.090Z,16.69
2022-08-25T20:06:12.009Z,16.78
2022-08-25T20:08:42.430Z,16.73
2022-08-25T20:11:08.845Z,16.65
2022-08-25T20:13:35.273Z,16.24
2022-08-25T20:16:02.223Z,16.31
2022-08-25T20:18:28.675Z,16.30
2022-08-25T20:20:55.221Z,16.55
2022-08-25T20:23:42.137Z,16.56
2022-08-25T20:26:09.209Z,16.46
2022-08-25T20:28:35.717Z,16.46
2022-08-25T20:31:02.181Z,16.29
2022-08-25T20:33:28.948Z,16.27
2022-08-25T20:35:56.999Z,16.12
2022-08-25T20:38:24.990Z,16.09
2022-08-25T20:40:52.525Z,15.97
2022-08-25T20:43:19.077Z,15.84
2022-08-25T20:45:47.724Z,15.79
2022-08-25T20:48:14.259Z,16.13
2022-08-25T20:50:40.769Z,15.78
2022-08-25T20:53:10.185Z,15.66
2022-08-25T20:55:43.706Z,15.94
2022-08-25T20:58:10.714Z,15.80
2022-08-25T21:00:37.154Z,15.74
2022-08-25T21:03:03.925Z,15.75
2022-08-25T21:05:30.338Z,15.54
2022-08-25T21:07:58.129Z,15.73
2022-08-25T21:10:24.544Z,15.41
2022-08-25T21:12:53.403Z,15.56
2022-08-25T21:15:20.183Z,15.56
2022-08-25T21:17:54.679Z,15.67
2022-08-25T21:20:24.979Z,15.75
2022-08-25T21:22:52.253Z,15.76
2022-08-25T21:25:20.429Z,15.90
2022-08-25T21:27:47.987Z,15.53
2022-08-25T21:30:15.701Z,15.67
2022-08-25T21:32:53.039Z,15.63
2022-08-25T21:35:20.599Z,15.89
2022-08-25T21:37:49.228Z,15.58
2022-08-25T21:40:22.602Z,15.61
2022-08-25T21:42:49.450Z,15.86
2022-08-25T21:45:16.306Z,15.62
2022-08-25T21:47:47.525Z,15.60
2022-08-25T21:50:13.994Z,15.52
2022-08-25T21:52:41.254Z,15.58
2022-08-25T21:55:16.038Z,15.62
2022-08-25T21:57:43.316Z,15.57
2022-08-25T22:00:13.003Z,15.53
2022-08-25T22:02:39.448Z,15.48
2022-08-25T22:05:09.415Z,15.53
2022-08-25T22:07:40.433Z,15.67
2022-08-25T22:10:09.438Z,15.46
2022-08-25T22:12:43.707Z,15.44
2022-08-25T22:15:13.562Z,15.12
2022-08-25T22:17:40.452Z,15.10
2022-08-25T22:20:07.997Z,15.12
2022-08-25T22:22:34.392Z,14.99
2022-08-25T22:25:01.173Z,15.10
2022-08-25T22:27:28.417Z,15.11
2022-08-25T22:29:55.984Z,15.13
2022-08-25T22:32:22.853Z,15.00
2022-08-25T22:34:49.392Z,15.11
2022-08-25T22:37:17.838Z,15.08
2022-08-25T22:39:48.118Z,15.25
2022-08-25T22:42:15.025Z,15.11
2022-08-25T22:44:42.484Z,14.95
2022-08-25T22:47:12.414Z,15.40
2022-08-25T22:49:39.781Z,15.34
2022-08-25T22:52:07.434Z,15.33
2022-08-25T22:54:36.650Z,15.01
2022-08-25T22:57:06.648Z,14.98
2022-08-25T22:59:33.929Z,15.01
2022-08-25T23:02:00.552Z,14.83
2022-08-25T23:04:27.060Z,14.74
2022-08-25T23:06:53.508Z,14.85
2022-08-25T23:09:20.924Z,14.96
2022-08-25T23:11:47.788Z,14.87
2022-08-25T23:14:18.181Z,14.96
2022-08-25T23:16:44.761Z,14.95
2022-08-25T23:19:13.996Z,15.19
2022-08-25T23:21:59.350Z,15.15
2022-08-25T23:24:29.527Z,14.96
2022-08-25T23:27:00.647Z,14.89
2022-08-25T23:29:28.043Z,15.08
2022-08-25T23:31:54.993Z,14.93
2022-08-25T23:34:21.795Z,14.96
2022-08-25T23:36:48.668Z,14.90
2022-08-25T23:39:15.069Z,14.93
2022-08-25T23:41:41.667Z,14.97
2022-08-25T23:44:09.379Z,14.90
2022-08-25T23:46:39.382Z,15.23
2022-08-25T23:49:08.434Z,15.13
2022-08-25T23:51:38.138Z,15.08
2022-08-25T23:54:09.322Z,15.27
2022-08-25T23:56:36.525Z,15.24
2022-08-25T23:59:09.670Z,15.27
